Time,TemperatureF,DewpointF,PressureIn,WindDirection,WindDirectionDegrees,WindSpeedMPH,WindSpeedGustMPH,Humidity,HourlyPrecipIn,Conditions,Clouds,dailyrainin,SoftwareType,DateUTC
2013-11-04 00:11:00,54.1,42.2,29.88,SSE,147,19.0,21.0,64,0.00,,---,0.00,VWS V14.01,2013-11-04 06:11:00,
2013-11-04 00:26:00,53.8,41.9,29.89,SSE,167,8.0,22.0,64,0.00,,---,0.00,VWS V14.01,2013-11-04 06:26:00,
2013-11-04 00:41:00,53.9,42.0,29.88,SSE,150,7.0,22.0,64,0.00,,---,0.00,VWS V14.01,2013-11-04 06:41:00,
2013-11-04 00:56:00,53.9,42.4,29.89,SSW,195,9.0,20.0,65,0.00,,---,0.00,VWS V14.01,2013-11-04 06:56:00,
2013-11-04 01:11:00,53.6,42.5,29.89,ESE,114,9.0,16.0,66,0.00,,---,0.00,VWS V14.01,2013-11-04 07:11:00,
2013-11-04 01:26:00,53.4,42.3,29.89,SSE,158,11.0,19.0,66,0.00,,---,0.00,VWS V14.01,2013-11-04 07:26:00,
2013-11-04 01:41:00,53.3,42.6,29.89,SSE,155,4.0,17.0,67,0.00,,---,0.00,VWS V14.01,2013-11-04 07:41:00,
2013-11-04 01:56:00,53.0,42.7,29.89,South,186,4.0,18.0,68,0.00,,---,0.00,VWS V14.01,2013-11-04 07:56:00,
2013-11-04 02:11:00,53.0,43.1,29.89,South,177,13.0,19.0,69,0.00,,---,0.00,VWS V14.01,2013-11-04 08:11:00,
2013-11-04 02:26:00,52.7,43.2,29.88,SE,136,4.0,19.0,70,0.00,,---,0.00,VWS V14.01,2013-11-04 08:26:00,
2013-11-04 02:41:00,52.2,43.5,29.88,South,177,11.0,18.0,72,0.00,,---,0.00,VWS V14.01,2013-11-04 08:41:00,
2013-11-04 02:56:00,51.8,44.1,29.88,SSE,161,10.0,18.0,75,0.00,,---,0.00,VWS V14.01,2013-11-04 08:56:00,
2013-11-04 03:11:00,50.3,44.7,29.87,SSE,155,14.0,20.0,81,0.01,,---,0.01,VWS V14.01,2013-11-04 09:11:00,
2013-11-04 03:26:00,49.3,45.0,29.87,SSE,158,4.0,18.0,85,0.01,,---,0.01,VWS V14.01,2013-11-04 09:26:00,
2013-11-04 03:41:00,48.8,45.4,29.86,SE,145,8.0,13.0,88,0.02,,---,0.02,VWS V14.01,2013-11-04 09:41:00,
2013-11-04 03:56:00,48.6,45.5,29.86,SSE,148,11.0,17.0,89,0.04,,---,0.04,VWS V14.01,2013-11-04 09:56:00,
2013-11-04 04:11:00,48.7,45.3,29.86,SE,134,11.0,19.0,88,0.05,,---,0.05,VWS V14.01,2013-11-04 10:11:00,
2013-11-04 04:26:00,48.7,45.3,29.85,SSE,152,11.0,15.0,88,0.05,,---,0.06,VWS V14.01,2013-11-04 10:26:00,
2013-11-04 04:41:00,48.5,45.4,29.86,SSE,155,5.0,18.0,89,0.06,,---,0.07,VWS V14.01,2013-11-04 10:41:00,
2013-11-04 04:56:00,48.3,45.2,29.86,SE,142,9.0,13.0,89,0.05,,---,0.07,VWS V14.01,2013-11-04 10:56:00,
2013-11-04 05:11:00,48.5,45.4,29.86,SSE,158,6.0,16.0,89,0.03,,---,0.07,VWS V14.01,2013-11-04 11:11:00,
2013-11-04 05:26:00,48.7,45.0,29.86,ESE,113,7.0,13.0,87,0.02,,---,0.07,VWS V14.01,2013-11-04 11:26:00,
2013-11-04 05:41:00,48.9,44.9,29.85,SSE,159,9.0,15.0,86,0.01,,---,0.07,VWS V14.01,2013-11-04 11:41:00,
2013-11-04 05:56:00,48.8,44.5,29.85,SSE,155,6.0,14.0,85,0.00,,---,0.07,VWS V14.01,2013-11-04 11:56:00,
2013-11-04 06:11:00,48.7,44.4,29.86,SE,124,6.0,12.0,85,0.00,,---,0.07,VWS V14.01,2013-11-04 12:11:00,
2013-11-04 06:26:00,48.7,44.4,29.85,SSE,162,2.0,16.0,85,0.00,,---,0.07,VWS V14.01,2013-11-04 12:26:00,
2013-11-04 06:41:00,48.5,44.2,29.87,SSE,151,4.0,13.0,85,0.00,,---,0.07,VWS V14.01,2013-11-04 12:41:00,
2013-11-04 06:56:00,48.5,44.2,29.88,SSE,150,2.0,6.0,85,0.00,,---,0.07,VWS V14.01,2013-11-04 12:56:00,
2013-11-04 07:11:00,48.6,44.3,29.86,ESE,113,5.0,9.0,85,0.00,,---,0.07,VWS V14.01,2013-11-04 13:11:00,
2013-11-04 07:26:00,48.9,44.6,29.88,SSE,161,1.0,12.0,85,0.00,,---,0.07,VWS V14.01,2013-11-04 13:26:00,
2013-11-04 07:41:00,49.4,45.1,29.88,SE,140,6.0,8.0,85,0.00,,---,0.07,VWS V14.01,2013-11-04 13:41:00,
2013-11-04 07:56:00,49.9,45.3,29.88,SSE,165,4.0,12.0,84,0.00,,---,0.07,VWS V14.01,2013-11-04 13:56:00,
2013-11-04 08:11:00,50.2,45.2,29.89,SSE,152,4.0,13.0,83,0.00,,---,0.07,VWS V14.01,2013-11-04 14:11:00,
2013-11-04 08:26:00,51.3,46.0,29.89,SSE,158,1.0,11.0,82,0.00,,---,0.07,VWS V14.01,2013-11-04 14:26:00,
2013-11-04 08:41:00,52.2,46.5,29.90,SSE,165,2.0,15.0,81,0.00,,---,0.07,VWS V14.01,2013-11-04 14:41:00,
2013-11-04 08:56:00,53.7,47.3,29.90,South,183,3.0,14.0,79,0.00,,---,0.07,VWS V14.01,2013-11-04 14:56:00,
2013-11-04 09:11:00,54.7,47.3,29.89,SSE,167,4.0,15.0,76,0.00,,---,0.07,VWS V14.01,2013-11-04 15:11:00,
2013-11-04 09:26:00,55.6,48.2,29.90,SSE,163,9.0,16.0,76,0.00,,---,0.07,VWS V14.01,2013-11-04 15:26:00,
2013-11-04 09:41:00,56.0,48.2,29.90,South,172,14.0,15.0,75,0.00,,---,0.07,VWS V14.01,2013-11-04 15:41:00,
2013-11-04 09:56:00,56.5,47.6,29.90,South,173,9.0,21.0,72,0.00,,---,0.07,VWS V14.01,2013-11-04 15:56:00,
2013-11-04 10:11:00,56.9,48.0,29.91,SSW,213,9.0,22.0,72,0.00,,---,0.07,VWS V14.01,2013-11-04 16:11:00,
2013-11-04 10:26:00,56.9,48.0,29.91,South,186,6.0,22.0,72,0.00,,---,0.07,VWS V14.01,2013-11-04 16:26:00,
2013-11-04 10:41:00,56.9,48.0,29.92,SSW,196,7.0,22.0,72,0.00,,---,0.07,VWS V14.01,2013-11-04 16:41:00,
2013-11-04 10:56:00,56.9,48.3,29.92,South,182,7.0,21.0,73,0.00,,---,0.07,VWS V14.01,2013-11-04 16:56:00,
2013-11-04 11:11:00,57.0,48.1,29.92,SW,215,7.0,20.0,72,0.00,,---,0.07,VWS V14.01,2013-11-04 17:11:00,
2013-11-04 11:26:00,57.0,48.4,29.92,South,175,7.0,16.0,73,0.00,,---,0.07,VWS V14.01,2013-11-04 17:26:00,
2013-11-04 11:41:00,57.0,48.4,29.93,SSE,166,4.0,14.0,73,0.00,,---,0.07,VWS V14.01,2013-11-04 17:41:00,
2013-11-04 11:56:00,57.1,48.5,29.93,South,188,7.0,13.0,73,0.00,,---,0.07,VWS V14.01,2013-11-04 17:56:00,
2013-11-04 12:11:00,57.1,48.9,29.93,SSW,202,11.0,11.0,74,0.00,,---,0.07,VWS V14.01,2013-11-04 18:11:00,
2013-11-04 12:26:00,57.2,49.7,29.93,South,180,4.0,12.0,76,0.00,,---,0.07,VWS V14.01,2013-11-04 18:26:00,
2013-11-04 12:41:00,57.1,48.9,29.93,SSW,195,9.0,11.0,74,0.00,,---,0.07,VWS V14.01,2013-11-04 18:41:00,
2013-11-04 12:56:00,57.1,48.9,29.93,SSW,196,3.0,11.0,74,0.00,,---,0.07,VWS V14.01,2013-11-04 18:56:00,
2013-11-04 13:11:00,57.1,48.9,29.93,SSE,159,6.0,11.0,74,0.00,,---,0.07,VWS V14.01,2013-11-04 19:11:00,
2013-11-04 13:26:00,57.3,49.1,29.93,SSW,192,7.0,12.0,74,0.00,,---,0.07,VWS V14.01,2013-11-04 19:26:00,
2013-11-04 13:41:00,57.7,49.1,29.94,South,185,3.0,10.0,73,0.00,,---,0.07,VWS V14.01,2013-11-04 19:41:00,
2013-11-04 13:56:00,57.9,49.3,29.94,SSW,205,6.0,10.0,73,0.00,,---,0.07,VWS V14.01,2013-11-04 19:56:00,
2013-11-04 14:11:00,58.0,49.0,29.94,South,176,5.0,12.0,72,0.00,,---,0.07,VWS V14.01,2013-11-04 20:11:00,
2013-11-04 14:26:00,58.1,49.1,29.94,SSE,150,5.0,10.0,72,0.00,,---,0.07,VWS V14.01,2013-11-04 20:26:00,
2013-11-04 14:41:00,58.1,49.1,29.94,SSW,200,7.0,11.0,72,0.00,,---,0.07,VWS V14.01,2013-11-04 20:41:00,
2013-11-04 14:56:00,58.1,49.1,29.94,South,181,5.0,10.0,72,0.00,,---,0.07,VWS V14.01,2013-11-04 20:56:00,
2013-11-04 15:11:00,58.1,49.5,29.95,SSW,194,6.0,9.0,73,0.00,,---,0.07,VWS V14.01,2013-11-04 21:11:00,
2013-11-04 15:26:00,58.1,49.9,29.95,SSE,153,2.0,8.0,74,0.00,,---,0.07,VWS V14.01,2013-11-04 21:26:00,
2013-11-04 15:41:00,58.1,49.5,29.96,South,185,2.0,8.0,73,0.00,,---,0.07,VWS V14.01,2013-11-04 21:41:00,
2013-11-04 15:56:00,58.1,50.6,29.96,South,182,3.0,8.0,76,0.00,,---,0.07,VWS V14.01,2013-11-04 21:56:00,
2013-11-04 16:11:00,58.0,50.1,29.97,SSE,161,0.0,7.0,75,0.00,,---,0.07,VWS V14.01,2013-11-04 22:11:00,
2013-11-04 16:26:00,57.8,50.3,29.97,South,175,1.0,5.0,76,0.00,,---,0.07,VWS V14.01,2013-11-04 22:26:00,
2013-11-04 16:41:00,57.6,50.1,29.97,South,177,1.0,5.0,76,0.00,,---,0.07,VWS V14.01,2013-11-04 22:41:00,
2013-11-04 16:56:00,57.3,50.2,29.97,South,174,0.0,5.0,77,0.00,,---,0.07,VWS V14.01,2013-11-04 22:56:00,
2013-11-04 17:11:00,56.9,49.8,29.98,South,174,0.0,2.0,77,0.00,,---,0.07,VWS V14.01,2013-11-04 23:11:00,
2013-11-04 17:26:00,56.7,49.9,29.99,South,174,0.0,1.0,78,0.00,,---,0.07,VWS V14.01,2013-11-04 23:26:00,
2013-11-04 17:41:00,56.3,49.5,29.99,South,174,0.0,0.0,78,0.00,,---,0.07,VWS V14.01,2013-11-04 23:41:00,
2013-11-04 17:56:00,55.9,49.5,30.00,South,174,0.0,0.0,79,0.00,,---,0.07,VWS V14.01,2013-11-04 23:56:00,
2013-11-04 18:11:00,55.6,49.5,30.00,South,174,0.0,0.0,80,0.00,,---,0.07,VWS V14.01,2013-11-05 00:11:00,
2013-11-04 18:26:00,55.3,49.6,30.01,South,174,0.0,0.0,81,0.00,,---,0.07,VWS V14.01,2013-11-05 00:26:00,
2013-11-04 18:41:00,55.1,49.7,30.01,South,174,0.0,0.0,82,0.00,,---,0.07,VWS V14.01,2013-11-05 00:41:00,
2013-11-04 18:56:00,54.9,49.8,30.02,South,174,0.0,1.0,83,0.00,,---,0.07,VWS V14.01,2013-11-05 00:56:00,
2013-11-04 19:11:00,54.8,49.7,30.02,South,174,0.0,0.0,83,0.00,,---,0.07,VWS V14.01,2013-11-05 01:11:00,
2013-11-04 19:26:00,54.7,49.7,30.02,South,174,0.0,0.0,83,0.00,,---,0.07,VWS V14.01,2013-11-05 01:26:00,
2013-11-04 19:41:00,54.6,49.5,30.03,South,174,0.0,0.0,83,0.00,,---,0.07,VWS V14.01,2013-11-05 01:41:00,
2013-11-04 19:56:00,54.6,49.9,30.03,South,174,0.0,0.0,84,0.00,,---,0.07,VWS V14.01,2013-11-05 01:56:00,
2013-11-04 20:11:00,54.5,49.8,30.03,South,174,0.0,0.0,84,0.00,,---,0.07,VWS V14.01,2013-11-05 02:11:00,
2013-11-04 20:26:00,54.5,49.8,30.03,South,174,0.0,1.0,84,0.00,,---,0.07,VWS V14.01,2013-11-05 02:26:00,
2013-11-04 20:41:00,54.8,50.1,30.04,South,174,0.0,2.0,84,0.00,,---,0.07,VWS V14.01,2013-11-05 02:41:00,
2013-11-04 20:56:00,54.7,49.7,30.04,South,174,0.0,0.0,83,0.00,,---,0.07,VWS V14.01,2013-11-05 02:56:00,
2013-11-04 21:11:00,54.6,49.9,30.04,South,174,0.0,0.0,84,0.00,,---,0.07,VWS V14.01,2013-11-05 03:11:00,
2013-11-04 21:26:00,54.4,49.7,30.05,South,174,0.0,0.0,84,0.00,,---,0.07,VWS V14.01,2013-11-05 03:26:00,
2013-11-04 21:41:00,54.3,49.6,30.05,South,174,0.0,0.0,84,0.00,,---,0.07,VWS V14.01,2013-11-05 03:41:00,
2013-11-04 21:56:00,54.2,49.8,30.05,South,174,0.0,0.0,85,0.00,,---,0.07,VWS V14.01,2013-11-05 03:56:00,
2013-11-04 22:11:00,54.2,49.8,30.05,South,174,0.0,0.0,85,0.00,,---,0.07,VWS V14.01,2013-11-05 04:11:00,
2013-11-04 22:26:00,54.4,50.0,30.05,South,174,0.0,0.0,85,0.00,,---,0.07,VWS V14.01,2013-11-05 04:26:00,
2013-11-04 22:41:00,54.4,50.0,30.05,South,174,0.0,0.0,85,0.00,,---,0.07,VWS V14.01,2013-11-05 04:41:00,
2013-11-04 22:56:00,54.2,49.8,30.05,South,174,0.0,0.0,85,0.00,,---,0.07,VWS V14.01,2013-11-05 04:56:00,
2013-11-04 23:11:00,54.1,49.7,30.05,South,174,0.0,0.0,85,0.00,,---,0.07,VWS V14.01,2013-11-05 05:11:00,
2013-11-04 23:26:00,53.8,49.7,30.05,South,174,0.0,0.0,86,0.00,,---,0.07,VWS V14.01,2013-11-05 05:26:00,
2013-11-04 23:41:00,53.6,49.8,30.05,South,174,0.0,0.0,87,0.00,,---,0.07,VWS V14.01,2013-11-05 05:41:00,
2013-11-04 23:56:00,53.5,50.0,30.05,South,174,0.0,1.0,88,0.00,,---,0.07,VWS V14.01,2013-11-05 05:56:00,